Airfield :
LOGIN :

Register | Disclaimer

   EN    FR    IT 

 










Legend :    VFR   Marginal VFR   IFR   Intensive IFR   Very Intensive IFR
Visi :
Ceiling :
>= 8 km
>= 3000ft
5 to 8 km
1000 to 3000 ft
1500m to 5 km
500 to 1000 ft
800 to 1500m
200 to 500 ft
< 800m
< 200 ft
Symbols :   Thunderstorms  Fog  Heavy snow  Heavy precipitations  Wind > 20 kt
SIGMETs :     Misc.  Thunderstorms  Icing  Turbulence  Mountain Waves  Volcanic Ashes






- Airport Elevation : 1521 ft
- IATA code : NCY


LFLP - Annecy

CURRENT METAR :
  • 300400Z AUTO 09003KT 050V120 9999 OVC026 03/02 Q1017 TEMPO 4000 BR OVC010

EXPIRED METARs :
  • 300330Z AUTO VRB02KT 8000 FEW021 OVC028 02/02 Q1017 TEMPO 4000 BR OVC010
  • 300230Z AUTO 07002KT 7000 BKN010 OVC029 01/01 Q1017 TEMPO 4000 BR
  • 300200Z AUTO VRB02KT 6000 FEW010 OVC029 01/01 Q1017
  • 300130Z AUTO VRB02KT 6000 BKN028 01/01 Q1017
  • 300100Z AUTO 08003KT 5000 BR SCT026 01/00 Q1017

TAF TAF LFLP
Valid from the 30 at 03:00 until the 01 at 03:00 UTC


300200Z 3003/0103 VRB03KT 9999 BKN025
TEMPO 3003/3011 OVC010
PROB40
TEMPO 3003/3010 4000 BR
BECMG 3012/3014 02008KT
BECMG 3021/3023 VRB02KT



MET'MAP, your aeronautical weather chart ! - Copyright ORBIFLY December 2007 - Disclaimer

ORBIFLY MET'MAP TEAM :

Programming & Development : Alexandra Zaïnal
Original concept : Baudouin d'Aumeries
Technical & hardware support : Manuel Goepfert
Assistance : Marc-Olivier Méhu




SOURCES & CREDITS :

   NOAA